sensor_id;sensor_type;location;lat;lon;timestamp;pressure;altitude;pressure_sealevel;temperature;humidity
45369;BME280;51342;55.250;37.668;2023-12-29T00:04:07;98891.94;;;-3.85;73.89
45369;BME280;51342;55.250;37.668;2023-12-29T00:06:39;98889.56;;;-3.83;73.67
45369;BME280;51342;55.250;37.668;2023-12-29T00:09:11;98894.75;;;-3.82;73.67
45369;BME280;51342;55.250;37.668;2023-12-29T00:11:43;98889.56;;;-3.83;73.88
45369;BME280;51342;55.250;37.668;2023-12-29T00:14:15;98881.84;;;-3.85;73.69
45369;BME280;51342;55.250;37.668;2023-12-29T00:16:46;98878.69;;;-3.82;73.75
45369;BME280;51342;55.250;37.668;2023-12-29T00:19:18;98876.91;;;-3.83;73.89
45369;BME280;51342;55.250;37.668;2023-12-29T00:21:49;98861.28;;;-3.88;73.80
45369;BME280;51342;55.250;37.668;2023-12-29T00:24:21;98865.91;;;-3.84;73.67
45369;BME280;51342;55.250;37.668;2023-12-29T00:26:52;98862.34;;;-3.86;73.83
45369;BME280;51342;55.250;37.668;2023-12-29T00:29:23;98858.34;;;-3.84;73.64
45369;BME280;51342;55.250;37.668;2023-12-29T00:31:55;98854.19;;;-3.83;73.75
45369;BME280;51342;55.250;37.668;2023-12-29T00:34:27;98843.31;;;-3.82;73.72
45369;BME280;51342;55.250;37.668;2023-12-29T00:36:59;98833.97;;;-3.83;73.57
45369;BME280;51342;55.250;37.668;2023-12-29T00:39:30;98822.06;;;-3.84;73.74
45369;BME280;51342;55.250;37.668;2023-12-29T00:42:02;98814.31;;;-3.86;73.79
45369;BME280;51342;55.250;37.668;2023-12-29T00:44:33;98810.75;;;-3.88;73.72
45369;BME280;51342;55.250;37.668;2023-12-29T00:47:05;98808.97;;;-3.89;73.55
45369;BME280;51342;55.250;37.668;2023-12-29T00:49:39;98808.84;;;-3.90;73.50
45369;BME280;51342;55.250;37.668;2023-12-29T00:52:11;98800.38;;;-3.91;73.54
45369;BME280;51342;55.250;37.668;2023-12-29T00:54:42;98796.22;;;-3.90;73.65
45369;BME280;51342;55.250;37.668;2023-12-29T00:57:14;98802.00;;;-3.91;73.50
45369;BME280;51342;55.250;37.668;2023-12-29T00:59:47;98799.47;;;-3.91;73.39
45369;BME280;51342;55.250;37.668;2023-12-29T01:02:18;98796.03;;;-3.92;73.73
45369;BME280;51342;55.250;37.668;2023-12-29T01:04:50;98789.81;;;-3.95;73.30
45369;BME280;51342;55.250;37.668;2023-12-29T01:07:21;98783.13;;;-3.95;73.36
45369;BME280;51342;55.250;37.668;2023-12-29T01:09:53;98783.13;;;-3.95;73.42
45369;BME280;51342;55.250;37.668;2023-12-29T01:12:25;98780.44;;;-3.96;73.33
45369;BME280;51342;55.250;37.668;2023-12-29T01:14:56;98770.16;;;-3.98;73.22
45369;BME280;51342;55.250;37.668;2023-12-29T01:17:27;98760.06;;;-3.98;73.43
45369;BME280;51342;55.250;37.668;2023-12-29T01:19:59;98749.25;;;-3.97;73.25
45369;BME280;51342;55.250;37.668;2023-12-29T01:22:31;98750.13;;;-3.96;73.24
45369;BME280;51342;55.250;37.668;2023-12-29T01:25:03;98760.06;;;-3.98;73.31
45369;BME280;51342;55.250;37.668;2023-12-29T01:27:34;98751.59;;;-3.98;73.48
45369;BME280;51342;55.250;37.668;2023-12-29T01:30:06;98743.88;;;-4.00;73.28
45369;BME280;51342;55.250;37.668;2023-12-29T01:32:37;98736.44;;;-3.98;73.37
45369;BME280;51342;55.250;37.668;2023-12-29T01:35:09;98730.50;;;-3.99;73.35
45369;BME280;51342;55.250;37.668;2023-12-29T01:37:42;98726.94;;;-4.01;73.24
45369;BME280;51342;55.250;37.668;2023-12-29T01:40:13;98715.34;;;-3.99;73.36
45369;BME280;51342;55.250;37.668;2023-12-29T01:42:45;98695.56;;;-4.03;73.16
45369;BME280;51342;55.250;37.668;2023-12-29T01:45:22;98698.09;;;-4.03;73.07
45369;BME280;51342;55.250;37.668;2023-12-29T01:47:54;98682.81;;;-4.05;73.45
45369;BME280;51342;55.250;37.668;2023-12-29T01:50:25;98677.00;;;-4.04;73.20
45369;BME280;51342;55.250;37.668;2023-12-29T01:52:57;98682.22;;;-4.02;73.03
45369;BME280;51342;55.250;37.668;2023-12-29T01:55:29;98681.47;;;-4.01;73.23
45369;BME280;51342;55.250;37.668;2023-12-29T01:58:01;98669.59;;;-4.02;73.21
45369;BME280;51342;55.250;37.668;2023-12-29T02:00:33;98667.78;;;-4.03;73.28
45369;BME280;51342;55.250;37.668;2023-12-29T02:03:06;98658.44;;;-4.04;73.21
45369;BME280;51342;55.250;37.668;2023-12-29T02:05:38;98667.19;;;-4.01;73.09
45369;BME280;51342;55.250;37.668;2023-12-29T02:08:11;98655.47;;;-4.00;73.32
45369;BME280;51342;55.250;37.668;2023-12-29T02:10:43;98653.81;;;-4.00;73.21
45369;BME280;51342;55.250;37.668;2023-12-29T02:13:14;98646.25;;;-4.00;73.12
45369;BME280;51342;55.250;37.668;2023-12-29T02:15:46;98647.44;;;-3.96;73.21
45369;BME280;51342;55.250;37.668;2023-12-29T02:18:18;98641.34;;;-3.98;73.13
45369;BME280;51342;55.250;37.668;2023-12-29T02:20:52;98639.88;;;-3.96;73.23
45369;BME280;51342;55.250;37.668;2023-12-29T02:23:23;98620.41;;;-3.97;73.30
45369;BME280;51342;55.250;37.668;2023-12-29T02:26:02;98622.19;;;-3.96;73.16
45369;BME280;51342;55.250;37.668;2023-12-29T02:28:34;98611.31;;;-3.95;73.15
45369;BME280;51342;55.250;37.668;2023-12-29T02:31:22;98603.00;;;-3.94;73.14
45369;BME280;51342;55.250;37.668;2023-12-29T02:33:56;98595.41;;;-3.94;73.17
45369;BME280;51342;55.250;37.668;2023-12-29T02:36:27;98599.72;;;-3.93;73.26
45369;BME280;51342;55.250;37.668;2023-12-29T02:38:59;98586.94;;;-3.94;73.33
45369;BME280;51342;55.250;37.668;2023-12-29T02:41:32;98604.00;;;-3.92;73.27
45369;BME280;51342;55.250;37.668;2023-12-29T02:44:03;98589.78;;;-3.91;73.26
45369;BME280;51342;55.250;37.668;2023-12-29T02:46:35;98582.50;;;-3.97;73.34
45369;BME280;51342;55.250;37.668;2023-12-29T02:49:06;98583.22;;;-3.98;73.63
45369;BME280;51342;55.250;37.668;2023-12-29T02:51:42;98589.47;;;-3.94;73.28
45369;BME280;51342;55.250;37.668;2023-12-29T02:54:15;98586.06;;;-3.95;73.29
45369;BME280;51342;55.250;37.668;2023-12-29T02:56:46;98574.31;;;-3.94;73.42
45369;BME280;51342;55.250;37.668;2023-12-29T02:59:17;98571.91;;;-3.93;73.45
45369;BME280;51342;55.250;37.668;2023-12-29T03:01:49;98569.41;;;-3.93;73.56
45369;BME280;51342;55.250;37.668;2023-12-29T03:04:20;98574.63;;;-3.91;73.30
45369;BME280;51342;55.250;37.668;2023-12-29T03:06:52;98558.41;;;-3.93;73.30
45369;BME280;51342;55.250;37.668;2023-12-29T03:09:23;98549.34;;;-3.91;73.39
45369;BME280;51342;55.250;37.668;2023-12-29T03:11:54;98542.66;;;-3.91;73.25
45369;BME280;51342;55.250;37.668;2023-12-29T03:14:26;98527.19;;;-3.94;73.33
45369;BME280;51342;55.250;37.668;2023-12-29T03:16:58;98528.97;;;-3.93;73.35
45369;BME280;51342;55.250;37.668;2023-12-29T03:19:29;98525.69;;;-3.92;73.37
45369;BME280;51342;55.250;37.668;2023-12-29T03:22:01;98526.31;;;-3.94;73.37
45369;BME280;51342;55.250;37.668;2023-12-29T03:24:32;98525.56;;;-3.93;73.35
45369;BME280;51342;55.250;37.668;2023-12-29T03:27:04;98528.72;;;-3.96;73.31
45369;BME280;51342;55.250;37.668;2023-12-29T03:29:36;98522.16;;;-3.94;73.40
45369;BME280;51342;55.250;37.668;2023-12-29T03:32:07;98528.97;;;-3.93;73.51
45369;BME280;51342;55.250;37.668;2023-12-29T03:34:38;98511.28;;;-3.93;73.44
45369;BME280;51342;55.250;37.668;2023-12-29T03:37:10;98517.09;;;-3.94;73.49
45369;BME280;51342;55.250;37.668;2023-12-29T03:39:41;98507.75;;;-3.95;73.57
45369;BME280;51342;55.250;37.668;2023-12-29T03:42:13;98504.59;;;-3.92;73.42
45369;BME280;51342;55.250;37.668;2023-12-29T03:44:44;98505.47;;;-3.92;73.63
45369;BME280;51342;55.250;37.668;2023-12-29T03:47:15;98504.00;;;-3.90;73.65
45369;BME280;51342;55.250;37.668;2023-12-29T03:49:48;98495.53;;;-3.90;73.71
45369;BME280;51342;55.250;37.668;2023-12-29T03:52:21;98501.63;;;-3.88;73.89
45369;BME280;51342;55.250;37.668;2023-12-29T03:54:52;98492.13;;;-3.91;73.68
45369;BME280;51342;55.250;37.668;2023-12-29T03:57:24;98504.44;;;-3.85;73.88
45369;BME280;51342;55.250;37.668;2023-12-29T03:59:55;98503.69;;;-3.84;73.96
45369;BME280;51342;55.250;37.668;2023-12-29T04:02:27;98496.25;;;-3.83;73.99
45369;BME280;51342;55.250;37.668;2023-12-29T04:04:59;98492.69;;;-3.85;74.08
45369;BME280;51342;55.250;37.668;2023-12-29T04:07:32;98471.59;;;-3.85;74.06
45369;BME280;51342;55.250;37.668;2023-12-29T04:10:04;98469.06;;;-3.85;74.29
45369;BME280;51342;55.250;37.668;2023-12-29T04:12:36;98469.97;;;-3.85;74.41
45369;BME280;51342;55.250;37.668;2023-12-29T04:15:08;98465.94;;;-3.83;74.37
45369;BME280;51342;55.250;37.668;2023-12-29T04:17:39;98470.34;;;-3.80;74.61
45369;BME280;51342;55.250;37.668;2023-12-29T04:20:11;98462.94;;;-3.79;74.67
45369;BME280;51342;55.250;37.668;2023-12-29T04:22:42;98461.16;;;-3.80;74.46
45369;BME280;51342;55.250;37.668;2023-12-29T04:25:13;98464.72;;;-3.78;74.78
45369;BME280;51342;55.250;37.668;2023-12-29T04:27:45;98457.88;;;-3.79;74.74
45369;BME280;51342;55.250;37.668;2023-12-29T04:30:16;98465.47;;;-3.79;74.74
45369;BME280;51342;55.250;37.668;2023-12-29T04:32:48;98457.88;;;-3.79;74.75
45369;BME280;51342;55.250;37.668;2023-12-29T04:35:21;98441.53;;;-3.82;75.08
45369;BME280;51342;55.250;37.668;2023-12-29T04:37:52;98434.09;;;-3.81;75.11
45369;BME280;51342;55.250;37.668;2023-12-29T04:40:24;98424.00;;;-3.81;75.06
45369;BME280;51342;55.250;37.668;2023-12-29T04:42:55;98419.81;;;-3.80;75.04
45369;BME280;51342;55.250;37.668;2023-12-29T04:45:27;98410.75;;;-3.78;75.19
45369;BME280;51342;55.250;37.668;2023-12-29T04:47:58;98411.34;;;-3.81;75.11
45369;BME280;51342;55.250;37.668;2023-12-29T04:50:29;98393.66;;;-3.81;75.34
45369;BME280;51342;55.250;37.668;2023-12-29T04:53:01;98396.19;;;-3.81;75.35
45369;BME280;51342;55.250;37.668;2023-12-29T04:55:32;98383.56;;;-3.81;75.37
45369;BME280;51342;55.250;37.668;2023-12-29T04:58:03;98382.84;;;-3.80;75.25
45369;BME280;51342;55.250;37.668;2023-12-29T05:00:35;98387.88;;;-3.80;75.45
45369;BME280;51342;55.250;37.668;2023-12-29T05:03:06;98385.06;;;-3.83;75.26
45369;BME280;51342;55.250;37.668;2023-12-29T05:05:38;98397.09;;;-3.80;75.53
45369;BME280;51342;55.250;37.668;2023-12-29T05:08:09;98381.03;;;-3.81;75.60
45369;BME280;51342;55.250;37.668;2023-12-29T05:10:40;98379.25;;;-3.82;75.66
45369;BME280;51342;55.250;37.668;2023-12-29T05:13:12;98371.97;;;-3.79;75.79
45369;BME280;51342;55.250;37.668;2023-12-29T05:15:43;98363.09;;;-3.84;75.80
45369;BME280;51342;55.250;37.668;2023-12-29T05:18:15;98365.88;;;-3.81;75.68
45369;BME280;51342;55.250;37.668;2023-12-29T05:20:46;98355.63;;;-3.82;75.97
45369;BME280;51342;55.250;37.668;2023-12-29T05:23:17;98350.91;;;-3.88;75.80
45369;BME280;51342;55.250;37.668;2023-12-29T05:25:49;98357.28;;;-3.83;76.12
45369;BME280;51342;55.250;37.668;2023-12-29T05:28:20;98353.41;;;-3.79;76.11
45369;BME280;51342;55.250;37.668;2023-12-29T05:30:51;98359.94;;;-3.81;76.10
45369;BME280;51342;55.250;37.668;2023-12-29T05:33:23;98355.03;;;-3.80;76.25
45369;BME280;51342;55.250;37.668;2023-12-29T05:35:54;98357.41;;;-3.81;76.36
45369;BME280;51342;55.250;37.668;2023-12-29T05:38:26;98354.13;;;-3.80;76.19
45369;BME280;51342;55.250;37.668;2023-12-29T05:40:57;98350.25;;;-3.77;76.33
45369;BME280;51342;55.250;37.668;2023-12-29T05:43:28;98343.28;;;-3.79;76.44
45369;BME280;51342;55.250;37.668;2023-12-29T05:46:01;98339.72;;;-3.81;76.37
45369;BME280;51342;55.250;37.668;2023-12-29T05:48:32;98338.38;;;-3.78;76.41
45369;BME280;51342;55.250;37.668;2023-12-29T05:51:10;98334.81;;;-3.80;76.37
45369;BME280;51342;55.250;37.668;2023-12-29T05:53:43;98333.44;;;-3.76;76.76
45369;BME280;51342;55.250;37.668;2023-12-29T05:56:15;98337.03;;;-3.74;76.61
45369;BME280;51342;55.250;37.668;2023-12-29T05:58:46;98340.56;;;-3.72;76.60
45369;BME280;51342;55.250;37.668;2023-12-29T06:01:18;98351.69;;;-3.70;76.86
45369;BME280;51342;55.250;37.668;2023-12-29T06:03:49;98341.75;;;-3.68;76.73
45369;BME280;51342;55.250;37.668;2023-12-29T06:06:20;98331.75;;;-3.67;76.64
45369;BME280;51342;55.250;37.668;2023-12-29T06:08:52;98322.25;;;-3.69;77.01
45369;BME280;51342;55.250;37.668;2023-12-29T06:11:23;98331.41;;;-3.61;76.87
45369;BME280;51342;55.250;37.668;2023-12-29T06:13:55;98324.09;;;-3.58;76.92
45369;BME280;51342;55.250;37.668;2023-12-29T06:16:26;98326.63;;;-3.58;76.94
45369;BME280;51342;55.250;37.668;2023-12-29T06:18:58;98339.69;;;-3.54;76.94
45369;BME280;51342;55.250;37.668;2023-12-29T06:21:29;98327.78;;;-3.55;77.05
45369;BME280;51342;55.250;37.668;2023-12-29T06:24:01;98330.72;;;-3.50;76.99
45369;BME280;51342;55.250;37.668;2023-12-29T06:26:32;98329.09;;;-3.50;77.13
45369;BME280;51342;55.250;37.668;2023-12-29T06:29:03;98330.66;;;-3.41;77.19
45369;BME280;51342;55.250;37.668;2023-12-29T06:31:35;98326.00;;;-3.37;77.20
45369;BME280;51342;55.250;37.668;2023-12-29T06:34:06;98321.84;;;-3.36;77.13
45369;BME280;51342;55.250;37.668;2023-12-29T06:36:38;98322.72;;;-3.36;77.29
45369;BME280;51342;55.250;37.668;2023-12-29T06:39:09;98315.41;;;-3.33;77.35
45369;BME280;51342;55.250;37.668;2023-12-29T06:41:41;98310.59;;;-3.30;77.47
45369;BME280;51342;55.250;37.668;2023-12-29T06:44:12;98300.50;;;-3.30;77.45
45369;BME280;51342;55.250;37.668;2023-12-29T06:46:44;98313.56;;;-3.25;77.57
45369;BME280;51342;55.250;37.668;2023-12-29T06:49:15;98315.47;;;-3.23;77.40
45369;BME280;51342;55.250;37.668;2023-12-29T06:51:46;98309.78;;;-3.20;77.45
45369;BME280;51342;55.250;37.668;2023-12-29T06:54:18;98295.63;;;-3.18;77.57
45369;BME280;51342;55.250;37.668;2023-12-29T06:56:49;98281.34;;;-3.17;77.82
45369;BME280;51342;55.250;37.668;2023-12-29T06:59:22;98278.06;;;-3.16;77.62
45369;BME280;51342;55.250;37.668;2023-12-29T07:01:53;98272.59;;;-3.21;77.57
45369;BME280;51342;55.250;37.668;2023-12-29T07:04:25;98284.00;;;-3.16;77.66
45369;BME280;51342;55.250;37.668;2023-12-29T07:06:56;98282.25;;;-3.17;77.72
45369;BME280;51342;55.250;37.668;2023-12-29T07:09:28;98287.06;;;-3.10;77.83
45369;BME280;51342;55.250;37.668;2023-12-29T07:11:59;98301.63;;;-3.07;77.92
45369;BME280;51342;55.250;37.668;2023-12-29T07:14:31;98310.50;;;-3.02;77.86
45369;BME280;51342;55.250;37.668;2023-12-29T07:17:03;98298.13;;;-2.99;77.76
45369;BME280;51342;55.250;37.668;2023-12-29T07:19:35;98290.25;;;-3.02;77.71
45369;BME280;51342;55.250;37.668;2023-12-29T07:22:07;98295.72;;;-2.98;77.87
45369;BME280;51342;55.250;37.668;2023-12-29T07:24:39;98305.34;;;-2.94;77.86
45369;BME280;51342;55.250;37.668;2023-12-29T07:27:12;98291.81;;;-2.94;77.95
45369;BME280;51342;55.250;37.668;2023-12-29T07:29:43;98296.78;;;-2.85;77.94
45369;BME280;51342;55.250;37.668;2023-12-29T07:32:14;98293.63;;;-2.83;77.98
45369;BME280;51342;55.250;37.668;2023-12-29T07:34:46;98297.06;;;-2.82;78.21
45369;BME280;51342;55.250;37.668;2023-12-29T07:37:17;98294.16;;;-2.77;78.10
45369;BME280;51342;55.250;37.668;2023-12-29T07:39:50;98296.16;;;-2.73;78.10
45369;BME280;51342;55.250;37.668;2023-12-29T07:42:21;98291.66;;;-2.67;78.18
45369;BME280;51342;55.250;37.668;2023-12-29T07:44:53;98287.13;;;-2.60;78.05
45369;BME280;51342;55.250;37.668;2023-12-29T07:47:27;98278.88;;;-2.58;78.09
45369;BME280;51342;55.250;37.668;2023-12-29T07:49:58;98273.16;;;-2.55;78.25
45369;BME280;51342;55.250;37.668;2023-12-29T07:52:30;98272.56;;;-2.53;77.97
45369;BME280;51342;55.250;37.668;2023-12-29T07:55:01;98273.72;;;-2.49;78.28
45369;BME280;51342;55.250;37.668;2023-12-29T07:57:33;98265.75;;;-2.44;78.24
45369;BME280;51342;55.250;37.668;2023-12-29T08:00:05;98263.59;;;-2.39;78.12
45369;BME280;51342;55.250;37.668;2023-12-29T08:02:43;98263.22;;;-2.33;78.28
45369;BME280;51342;55.250;37.668;2023-12-29T08:05:14;98257.53;;;-2.31;78.36
45369;BME280;51342;55.250;37.668;2023-12-29T08:07:47;98266.63;;;-2.23;78.39
45369;BME280;51342;55.250;37.668;2023-12-29T08:10:22;98258.44;;;-2.20;78.09
45369;BME280;51342;55.250;37.668;2023-12-29T08:12:53;98257.41;;;-2.12;78.45
45369;BME280;51342;55.250;37.668;2023-12-29T08:15:25;98256.50;;;-2.13;78.20
45369;BME280;51342;55.250;37.668;2023-12-29T08:17:57;98260.31;;;-2.07;78.29
45369;BME280;51342;55.250;37.668;2023-12-29T08:20:28;98253.59;;;-2.07;78.47
45369;BME280;51342;55.250;37.668;2023-12-29T08:23:00;98262.19;;;-2.05;78.44
45369;BME280;51342;55.250;37.668;2023-12-29T08:25:34;98247.75;;;-2.06;78.42
45369;BME280;51342;55.250;37.668;2023-12-29T08:28:08;98243.59;;;-2.05;78.51
45369;BME280;51342;55.250;37.668;2023-12-29T08:30:39;98243.19;;;-2.00;78.58
45369;BME280;51342;55.250;37.668;2023-12-29T08:33:12;98240.94;;;-1.97;78.59
45369;BME280;51342;55.250;37.668;2023-12-29T08:35:45;98241.69;;;-1.98;78.61
45369;BME280;51342;55.250;37.668;2023-12-29T08:38:17;98241.94;;;-1.95;78.58
45369;BME280;51342;55.250;37.668;2023-12-29T08:40:48;98239.66;;;-1.92;78.61
45369;BME280;51342;55.250;37.668;2023-12-29T08:43:19;98238.50;;;-1.95;78.53
45369;BME280;51342;55.250;37.668;2023-12-29T08:45:52;98240.03;;;-1.87;78.54
45369;BME280;51342;55.250;37.668;2023-12-29T08:48:24;98230.13;;;-1.84;78.49
45369;BME280;51342;55.250;37.668;2023-12-29T08:50:56;98236.34;;;-1.80;78.77
45369;BME280;51342;55.250;37.668;2023-12-29T08:53:28;98227.22;;;-1.78;78.44
45369;BME280;51342;55.250;37.668;2023-12-29T08:56:02;98223.91;;;-1.77;78.55
45369;BME280;51342;55.250;37.668;2023-12-29T08:58:34;98219.22;;;-1.73;78.71
45369;BME280;51342;55.250;37.668;2023-12-29T09:01:05;98218.72;;;-1.69;78.61
45369;BME280;51342;55.250;37.668;2023-12-29T09:03:36;98221.25;;;-1.69;78.64
45369;BME280;51342;55.250;37.668;2023-12-29T09:06:08;98211.97;;;-1.68;78.75
45369;BME280;51342;55.250;37.668;2023-12-29T09:08:41;98209.69;;;-1.65;78.79
45369;BME280;51342;55.250;37.668;2023-12-29T09:11:12;98197.66;;;-1.68;78.75
45369;BME280;51342;55.250;37.668;2023-12-29T09:13:44;98198.41;;;-1.58;78.78
45369;BME280;51342;55.250;37.668;2023-12-29T09:16:15;98200.16;;;-1.57;78.74
45369;BME280;51342;55.250;37.668;2023-12-29T09:18:46;98199.88;;;-1.50;78.70
45369;BME280;51342;55.250;37.668;2023-12-29T09:21:18;98195.94;;;-1.47;79.01
45369;BME280;51342;55.250;37.668;2023-12-29T09:23:49;98193.41;;;-1.47;78.77
45369;BME280;51342;55.250;37.668;2023-12-29T09:26:21;98192.75;;;-1.44;79.02
45369;BME280;51342;55.250;37.668;2023-12-29T09:28:53;98191.97;;;-1.43;78.94
45369;BME280;51342;55.250;37.668;2023-12-29T09:31:24;98191.34;;;-1.41;79.00
45369;BME280;51342;55.250;37.668;2023-12-29T09:33:56;98189.94;;;-1.37;79.19
45369;BME280;51342;55.250;37.668;2023-12-29T09:36:28;98182.47;;;-1.36;79.09
45369;BME280;51342;55.250;37.668;2023-12-29T09:38:59;98186.59;;;-1.26;79.07
45369;BME280;51342;55.250;37.668;2023-12-29T09:41:31;98185.06;;;-1.24;79.14
45369;BME280;51342;55.250;37.668;2023-12-29T09:44:06;98191.91;;;-1.23;79.10
45369;BME280;51342;55.250;37.668;2023-12-29T09:46:49;98188.50;;;-1.23;79.07
45369;BME280;51342;55.250;37.668;2023-12-29T09:49:21;98178.44;;;-1.22;79.34
45369;BME280;51342;55.250;37.668;2023-12-29T09:51:53;98175.41;;;-1.18;79.39
45369;BME280;51342;55.250;37.668;2023-12-29T09:54:24;98178.94;;;-1.16;79.30
45369;BME280;51342;55.250;37.668;2023-12-29T09:56:56;98167.38;;;-1.12;79.65
45369;BME280;51342;55.250;37.668;2023-12-29T09:59:29;98161.53;;;-1.11;79.31
45369;BME280;51342;55.250;37.668;2023-12-29T10:02:06;98165.41;;;-1.04;79.60
45369;BME280;51342;55.250;37.668;2023-12-29T10:04:42;98159.03;;;-0.99;79.57
45369;BME280;51342;55.250;37.668;2023-12-29T10:07:20;98161.84;;;-0.96;79.53
45369;BME280;51342;55.250;37.668;2023-12-29T10:09:57;98173.19;;;-0.91;79.58
45369;BME280;51342;55.250;37.668;2023-12-29T10:12:31;98170.13;;;-0.87;79.83
45369;BME280;51342;55.250;37.668;2023-12-29T10:15:17;98166.03;;;-0.85;79.80
45369;BME280;51342;55.250;37.668;2023-12-29T10:20:47;98177.34;;;-0.82;79.80
45369;BME280;51342;55.250;37.668;2023-12-29T10:23:24;98179.25;;;-0.79;80.01
45369;BME280;51342;55.250;37.668;2023-12-29T10:26:00;98164.00;;;-0.79;80.13
45369;BME280;51342;55.250;37.668;2023-12-29T10:28:32;98160.81;;;-0.76;80.23
45369;BME280;51342;55.250;37.668;2023-12-29T10:31:04;98159.16;;;-0.76;80.30
45369;BME280;51342;55.250;37.668;2023-12-29T10:33:36;98163.59;;;-0.73;80.24
45369;BME280;51342;55.250;37.668;2023-12-29T10:36:07;98165.47;;;-0.71;80.54
45369;BME280;51342;55.250;37.668;2023-12-29T10:38:40;98157.16;;;-0.68;80.60
45369;BME280;51342;55.250;37.668;2023-12-29T10:41:16;98155.41;;;-0.69;80.51
45369;BME280;51342;55.250;37.668;2023-12-29T10:43:48;98159.06;;;-0.66;80.63
45369;BME280;51342;55.250;37.668;2023-12-29T10:46:25;98154.88;;;-0.65;80.53
45369;BME280;51342;55.250;37.668;2023-12-29T10:49:10;98151.47;;;-0.66;80.75
45369;BME280;51342;55.250;37.668;2023-12-29T10:51:41;98149.28;;;-0.61;80.95
45369;BME280;51342;55.250;37.668;2023-12-29T10:54:20;98145.97;;;-0.60;80.94
45369;BME280;51342;55.250;37.668;2023-12-29T10:57:02;98140.00;;;-0.61;81.01
45369;BME280;51342;55.250;37.668;2023-12-29T10:59:33;98142.09;;;-0.55;81.10
45369;BME280;51342;55.250;37.668;2023-12-29T11:02:05;98139.66;;;-0.54;81.28
45369;BME280;51342;55.250;37.668;2023-12-29T11:04:39;98144.22;;;-0.49;81.61
45369;BME280;51342;55.250;37.668;2023-12-29T11:07:13;98141.78;;;-0.48;81.39
45369;BME280;51342;55.250;37.668;2023-12-29T11:09:44;98140.13;;;-0.47;81.63
45369;BME280;51342;55.250;37.668;2023-12-29T11:12:16;98144.69;;;-0.43;81.69
45369;BME280;51342;55.250;37.668;2023-12-29T11:14:48;98148.19;;;-0.41;81.79
45369;BME280;51342;55.250;37.668;2023-12-29T11:17:21;98141.59;;;-0.39;81.66
45369;BME280;51342;55.250;37.668;2023-12-29T11:19:53;98150.22;;;-0.37;81.78
45369;BME280;51342;55.250;37.668;2023-12-29T11:22:27;98158.81;;;-0.35;81.95
45369;BME280;51342;55.250;37.668;2023-12-29T11:24:59;98157.31;;;-0.33;82.00
45369;BME280;51342;55.250;37.668;2023-12-29T11:27:31;98151.44;;;-0.32;82.01
45369;BME280;51342;55.250;37.668;2023-12-29T11:30:03;98155.06;;;-0.29;82.30
45369;BME280;51342;55.250;37.668;2023-12-29T11:33:02;98155.97;;;-0.28;82.15
45369;BME280;51342;55.250;37.668;2023-12-29T11:35:43;98158.63;;;-0.27;82.33
45369;BME280;51342;55.250;37.668;2023-12-29T11:38:38;98151.00;;;-0.27;82.20
45369;BME280;51342;55.250;37.668;2023-12-29T11:41:39;98157.84;;;-0.25;82.50
45369;BME280;51342;55.250;37.668;2023-12-29T11:44:24;98157.31;;;-0.21;82.85
45369;BME280;51342;55.250;37.668;2023-12-29T11:46:56;98142.53;;;-0.15;82.85
45369;BME280;51342;55.250;37.668;2023-12-29T11:49:58;98150.16;;;-0.15;82.41
45369;BME280;51342;55.250;37.668;2023-12-29T11:52:37;98156.44;;;-0.10;82.69
45369;BME280;51342;55.250;37.668;2023-12-29T11:55:11;98158.56;;;-0.05;82.89
45369;BME280;51342;55.250;37.668;2023-12-29T11:57:43;98158.56;;;-0.05;83.03
45369;BME280;51342;55.250;37.668;2023-12-29T12:00:15;98149.63;;;0.01;83.24
45369;BME280;51342;55.250;37.668;2023-12-29T12:02:47;98158.31;;;0.04;83.24
45369;BME280;51342;55.250;37.668;2023-12-29T12:05:44;98160.66;;;0.01;83.18
45369;BME280;51342;55.250;37.668;2023-12-29T12:08:35;98164.72;;;-0.01;83.29
45369;BME280;51342;55.250;37.668;2023-12-29T12:14:01;98174.81;;;0.09;83.74
45369;BME280;51342;55.250;37.668;2023-12-29T12:19:16;98180.34;;;0.15;83.84
45369;BME280;51342;55.250;37.668;2023-12-29T12:21:50;98182.09;;;0.16;83.49
45369;BME280;51342;55.250;37.668;2023-12-29T12:24:24;98176.38;;;0.19;83.66
45369;BME280;51342;55.250;37.668;2023-12-29T12:26:57;98183.22;;;0.20;84.12
45369;BME280;51342;55.250;37.668;2023-12-29T12:29:29;98178.38;;;0.23;83.68
45369;BME280;51342;55.250;37.668;2023-12-29T12:32:00;98186.88;;;0.23;84.02
45369;BME280;51342;55.250;37.668;2023-12-29T12:34:37;98180.13;;;0.24;83.97
45369;BME280;51342;55.250;37.668;2023-12-29T12:37:09;98180.25;;;0.25;84.06
45369;BME280;51342;55.250;37.668;2023-12-29T12:39:40;98182.88;;;0.27;84.27
45369;BME280;51342;55.250;37.668;2023-12-29T12:42:13;98183.75;;;0.28;84.17
45369;BME280;51342;55.250;37.668;2023-12-29T12:45:06;98194.63;;;0.25;83.91
45369;BME280;51342;55.250;37.668;2023-12-29T12:47:44;98193.19;;;0.29;84.24
45369;BME280;51342;55.250;37.668;2023-12-29T12:50:16;98197.59;;;0.31;84.28
45369;BME280;51342;55.250;37.668;2023-12-29T12:52:48;98202.78;;;0.33;84.59
45369;BME280;51342;55.250;37.668;2023-12-29T12:55:20;98206.34;;;0.35;84.60
45369;BME280;51342;55.250;37.668;2023-12-29T12:57:54;98214.09;;;0.36;84.51
45369;BME280;51342;55.250;37.668;2023-12-29T13:00:26;98214.28;;;0.39;84.58
45369;BME280;51342;55.250;37.668;2023-12-29T13:02:57;98212.44;;;0.37;84.45
45369;BME280;51342;55.250;37.668;2023-12-29T13:05:31;98216.09;;;0.40;84.50
45369;BME280;51342;55.250;37.668;2023-12-29T13:08:02;98221.38;;;0.43;84.57
45369;BME280;51342;55.250;37.668;2023-12-29T13:10:40;98211.97;;;0.42;84.66
45369;BME280;51342;55.250;37.668;2023-12-29T13:13:12;98217.16;;;0.44;84.88
45369;BME280;51342;55.250;37.668;2023-12-29T13:15:50;98204.34;;;0.42;84.62
45369;BME280;51342;55.250;37.668;2023-12-29T13:18:29;98207.09;;;0.45;84.72
45369;BME280;51342;55.250;37.668;2023-12-29T13:21:03;98210.66;;;0.47;85.00
45369;BME280;51342;55.250;37.668;2023-12-29T13:23:35;98204.78;;;0.48;84.89
45369;BME280;51342;55.250;37.668;2023-12-29T13:26:09;98212.44;;;0.48;84.88
45369;BME280;51342;55.250;37.668;2023-12-29T13:28:40;98207.44;;;0.50;84.98
45369;BME280;51342;55.250;37.668;2023-12-29T13:31:12;98209.34;;;0.52;84.82